createdAt,value
2019-05-23T00:04:39.640Z,10.10
2019-05-23T00:09:08.434Z,10.10
2019-05-23T00:13:16.342Z,10.00
2019-05-23T00:17:27.298Z,10.00
2019-05-23T00:21:34.864Z,10.00
2019-05-23T00:25:43.636Z,9.90
2019-05-23T00:29:51.592Z,9.90
2019-05-23T00:34:00.523Z,9.80
2019-05-23T00:38:09.401Z,9.90
2019-05-23T00:42:31.771Z,9.80
2019-05-23T00:46:39.487Z,9.80
2019-05-23T00:51:05.967Z,9.80
2019-05-23T00:55:13.052Z,9.70
2019-05-23T00:59:27.033Z,9.70
2019-05-23T01:03:29.767Z,9.60
2019-05-23T01:07:35.990Z,9.60
2019-05-23T01:11:44.090Z,9.60
2019-05-23T01:15:52.754Z,9.60
2019-05-23T01:19:59.898Z,9.50
2019-05-23T01:24:08.350Z,9.40
2019-05-23T01:28:15.754Z,9.40
2019-05-23T01:32:24.197Z,9.30
2019-05-23T01:36:31.462Z,9.30
2019-05-23T01:40:37.993Z,9.20
2019-05-23T01:44:44.803Z,9.10
2019-05-23T01:48:51.229Z,9.10
2019-05-23T01:52:57.950Z,9.00
2019-05-23T01:57:06.564Z,9.00
2019-05-23T02:01:14.192Z,9.10
2019-05-23T02:05:20.482Z,9.20
2019-05-23T02:09:28.388Z,9.30
2019-05-23T02:13:35.210Z,9.40
2019-05-23T02:17:45.502Z,9.50
2019-05-23T02:21:51.764Z,9.50
2019-05-23T02:25:59.339Z,9.50
2019-05-23T02:30:34.848Z,9.50
2019-05-23T02:34:33.085Z,9.50
2019-05-23T02:38:53.370Z,9.40
2019-05-23T02:43:22.918Z,9.40
2019-05-23T02:47:33.775Z,9.30
2019-05-23T02:51:40.588Z,9.20
2019-05-23T02:55:50.050Z,9.20
2019-05-23T02:59:59.446Z,9.20
2019-05-23T03:04:25.992Z,9.30
2019-05-23T03:08:52.585Z,9.30
2019-05-23T03:13:01.899Z,9.20
2019-05-23T03:17:11.938Z,9.10
2019-05-23T03:21:19.698Z,9.00
2019-05-23T03:25:41.511Z,8.90
2019-05-23T03:29:48.200Z,8.90
2019-05-23T03:33:55.411Z,9.00
2019-05-23T03:38:02.408Z,9.10
2019-05-23T03:42:09.503Z,9.20
2019-05-23T03:46:17.891Z,9.30
2019-05-23T03:50:25.960Z,9.30
2019-05-23T03:54:32.964Z,9.40
2019-05-23T03:58:40.978Z,9.50
2019-05-23T04:02:48.979Z,9.60
2019-05-23T04:06:55.360Z,9.70
2019-05-23T04:11:01.808Z,9.80
2019-05-23T04:15:10.577Z,9.90
2019-05-23T04:19:17.803Z,9.90
2019-05-23T04:23:42.830Z,10.00
2019-05-23T04:28:09.412Z,10.10
2019-05-23T04:32:34.755Z,10.20
2019-05-23T04:36:47.730Z,10.50
2019-05-23T04:40:56.258Z,10.90
2019-05-23T04:45:06.619Z,11.50
2019-05-23T04:49:22.675Z,13.90
2019-05-23T04:53:38.207Z,17.80
2019-05-23T04:57:45.337Z,20.30
2019-05-23T05:02:23.106Z,22.30
2019-05-23T05:06:17.742Z,23.90
2019-05-23T05:10:43.730Z,25.30
2019-05-23T05:15:05.795Z,24.30
2019-05-23T05:19:14.971Z,22.50
2019-05-23T05:23:31.179Z,21.70
2019-05-23T05:27:39.882Z,22.10
2019-05-23T05:32:06.279Z,23.50
2019-05-23T05:36:15.240Z,24.50
2019-05-23T05:40:23.184Z,24.70
2019-05-23T05:44:32.054Z,25.30
2019-05-23T05:48:39.981Z,24.80
2019-05-23T05:52:46.351Z,24.10
2019-05-23T05:56:54.640Z,23.10
2019-05-23T06:01:04.391Z,22.50
2019-05-23T06:05:34.464Z,22.50
2019-05-23T06:09:51.054Z,22.90
2019-05-23T06:14:06.617Z,23.00
2019-05-23T06:18:14.643Z,23.90
2019-05-23T06:22:22.414Z,28.30
2019-05-23T06:26:31.493Z,30.90
2019-05-23T06:30:39.491Z,31.30
2019-05-23T06:34:52.412Z,33.20
2019-05-23T06:39:10.318Z,33.60
2019-05-23T06:43:24.333Z,32.00
2019-05-23T06:47:49.576Z,29.90
2019-05-23T06:52:11.051Z,27.50
2019-05-23T06:56:35.795Z,26.20
2019-05-23T07:00:57.060Z,26.30
2019-05-23T07:05:06.164Z,28.10
2019-05-23T07:09:32.586Z,28.00
2019-05-23T07:13:40.965Z,26.20
2019-05-23T07:18:01.393Z,27.70
2019-05-23T07:22:10.369Z,31.00
2019-05-23T07:26:16.817Z,31.50
2019-05-23T07:30:29.602Z,33.80
2019-05-23T07:34:55.438Z,36.70
2019-05-23T07:39:05.684Z,38.50
2019-05-23T07:43:12.766Z,39.80
2019-05-23T07:47:20.826Z,37.10
2019-05-23T07:51:46.205Z,37.00
2019-05-23T07:55:56.612Z,38.10
2019-05-23T08:00:08.348Z,35.40
2019-05-23T08:04:22.023Z,33.90
2019-05-23T08:08:27.160Z,32.30
2019-05-23T08:12:37.572Z,30.40
2019-05-23T08:16:45.906Z,29.80
2019-05-23T08:20:52.625Z,30.40
2019-05-23T08:24:59.338Z,30.10
2019-05-23T08:29:26.375Z,30.00
2019-05-23T08:33:18.779Z,32.20
2019-05-23T08:37:26.751Z,31.50
2019-05-23T08:41:34.881Z,29.60
2019-05-23T08:45:44.531Z,29.30
2019-05-23T08:49:51.315Z,30.40
2019-05-23T08:53:59.115Z,33.80
2019-05-23T08:58:05.801Z,36.60
2019-05-23T09:02:14.284Z,34.90
2019-05-23T09:06:24.481Z,34.90
2019-05-23T09:10:34.629Z,37.20
2019-05-23T09:14:42.548Z,38.20
2019-05-23T09:18:51.047Z,36.60
2019-05-23T09:22:58.068Z,35.70
2019-05-23T09:27:06.811Z,37.40
2019-05-23T09:31:15.653Z,39.00
2019-05-23T09:35:40.492Z,40.30
2019-05-23T09:39:47.384Z,37.70
2019-05-23T09:44:02.415Z,33.70
2019-05-23T09:48:08.988Z,32.80
2019-05-23T09:52:15.773Z,34.10
2019-05-23T09:56:23.803Z,36.00
2019-05-23T10:00:31.300Z,36.70
2019-05-23T10:04:57.290Z,38.20
2019-05-23T10:09:07.618Z,38.50
2019-05-23T10:13:16.219Z,38.10
2019-05-23T10:17:25.222Z,35.60
2019-05-23T10:21:41.458Z,36.90
2019-05-23T10:26:00.456Z,40.10
2019-05-23T10:30:10.883Z,40.50
2019-05-23T10:34:35.584Z,40.80
2019-05-23T10:38:47.725Z,40.60
2019-05-23T10:42:55.941Z,40.00
2019-05-23T10:47:08.503Z,37.90
2019-05-23T10:51:16.608Z,37.90
2019-05-23T10:55:23.754Z,37.00
2019-05-23T10:59:35.511Z,36.70
2019-05-23T11:03:42.231Z,36.10
2019-05-23T11:07:48.903Z,35.10
2019-05-23T11:11:55.645Z,32.80
2019-05-23T11:16:09.186Z,31.30
2019-05-23T11:20:36.099Z,29.10
2019-05-23T11:25:01.685Z,27.20
2019-05-23T11:29:08.776Z,26.00
2019-05-23T11:33:33.553Z,24.40
2019-05-23T11:37:48.190Z,23.20
2019-05-23T11:41:56.142Z,22.50
2019-05-23T11:46:19.531Z,22.20
2019-05-23T11:50:44.822Z,21.80
2019-05-23T11:55:10.047Z,21.40
2019-05-23T11:59:34.675Z,21.20
2019-05-23T12:03:45.230Z,21.10
2019-05-23T12:07:56.483Z,20.80
2019-05-23T12:12:03.320Z,20.10
2019-05-23T12:16:11.689Z,20.10
2019-05-23T12:20:36.163Z,20.20
2019-05-23T12:24:42.525Z,20.00
2019-05-23T12:28:48.783Z,20.30
2019-05-23T12:32:55.233Z,20.40
2019-05-23T12:37:18.596Z,20.50
2019-05-23T12:41:11.231Z,20.40
2019-05-23T12:45:18.408Z,20.60
2019-05-23T12:49:32.419Z,20.80
2019-05-23T12:53:38.675Z,20.90
2019-05-23T12:57:45.177Z,21.10
2019-05-23T13:01:53.230Z,20.90
2019-05-23T13:05:59.795Z,20.60
2019-05-23T13:10:08.175Z,20.40
2019-05-23T13:14:16.387Z,20.30
2019-05-23T13:18:23.191Z,20.20
2019-05-23T13:22:29.871Z,20.10
2019-05-23T13:26:37.159Z,20.10
2019-05-23T13:30:43.821Z,20.30
2019-05-23T13:34:50.150Z,20.50
2019-05-23T13:38:56.845Z,20.50
2019-05-23T13:43:07.303Z,20.60
2019-05-23T13:47:11.628Z,20.70
2019-05-23T13:51:17.959Z,20.70
2019-05-23T13:55:24.454Z,20.90
2019-05-23T13:59:30.763Z,20.90
2019-05-23T14:03:37.279Z,21.00
2019-05-23T14:07:43.655Z,21.30
2019-05-23T14:12:19.014Z,21.50
2019-05-23T14:15:59.611Z,21.70
2019-05-23T14:20:06.296Z,21.80
2019-05-23T14:24:12.750Z,21.90
2019-05-23T14:28:22.151Z,21.70
2019-05-23T14:32:46.711Z,21.90
2019-05-23T14:36:56.644Z,22.10
2019-05-23T14:41:04.676Z,22.00
2019-05-23T14:45:47.179Z,21.90
2019-05-23T14:50:11.438Z,22.00
2019-05-23T14:54:19.702Z,22.00
2019-05-23T14:58:26.577Z,21.90
2019-05-23T15:02:33.938Z,21.90
2019-05-23T15:06:40.467Z,22.00
2019-05-23T15:10:47.063Z,22.20
2019-05-23T15:15:00.864Z,22.10
2019-05-23T15:19:08.646Z,22.10
2019-05-23T15:23:16.710Z,21.90
2019-05-23T15:27:25.099Z,21.90
2019-05-23T15:31:38.478Z,21.80
2019-05-23T15:35:48.860Z,21.50
2019-05-23T15:40:07.232Z,21.20
2019-05-23T15:44:26.038Z,21.00
2019-05-23T15:48:26.855Z,20.80
2019-05-23T15:52:36.625Z,20.60
2019-05-23T15:57:12.011Z,20.40
2019-05-23T16:01:38.205Z,20.20
2019-05-23T16:05:50.526Z,19.90
2019-05-23T16:10:09.124Z,19.70
2019-05-23T16:14:33.903Z,19.70
2019-05-23T16:18:58.600Z,19.50
2019-05-23T16:23:23.781Z,19.30
2019-05-23T16:27:49.766Z,19.00
2019-05-23T16:32:15.177Z,18.80
2019-05-23T16:36:21.464Z,18.40
2019-05-23T16:40:29.590Z,18.00
2019-05-23T16:44:53.992Z,17.90
2019-05-23T16:49:08.489Z,17.90
2019-05-23T16:53:18.146Z,17.90
2019-05-23T16:57:44.842Z,17.70
2019-05-23T17:02:11.643Z,17.40
2019-05-23T17:06:40.405Z,17.20
2019-05-23T17:10:58.640Z,17.20
2019-05-23T17:15:29.486Z,17.20
2019-05-23T17:20:01.040Z,17.20
2019-05-23T17:24:18.905Z,17.20
2019-05-23T17:28:38.495Z,17.10
2019-05-23T17:32:46.485Z,17.00
2019-05-23T17:36:52.877Z,17.00
2019-05-23T17:41:05.375Z,16.90
2019-05-23T17:45:30.368Z,16.80
2019-05-23T17:49:54.851Z,16.70
2019-05-23T17:54:21.791Z,16.60
2019-05-23T17:58:48.187Z,16.50
2019-05-23T18:03:15.259Z,16.40
2019-05-23T18:07:41.823Z,16.30
2019-05-23T18:12:07.866Z,16.20
2019-05-23T18:16:19.205Z,16.00
2019-05-23T18:20:32.625Z,15.90
2019-05-23T18:24:41.568Z,15.80
2019-05-23T18:28:52.406Z,15.60
2019-05-23T18:33:11.591Z,15.50
2019-05-23T18:37:36.386Z,15.30
2019-05-23T18:42:02.468Z,15.10
2019-05-23T18:46:16.898Z,15.00
2019-05-23T18:50:24.031Z,14.80
2019-05-23T18:54:30.799Z,14.60
2019-05-23T18:58:37.290Z,14.40
2019-05-23T19:02:44.829Z,14.30
2019-05-23T19:06:51.339Z,14.10
2019-05-23T19:10:59.018Z,13.80
2019-05-23T19:15:10.555Z,13.60
2019-05-23T19:19:35.551Z,13.30
2019-05-23T19:24:00.701Z,13.00
2019-05-23T19:28:26.335Z,12.80
2019-05-23T19:32:52.314Z,12.60
2019-05-23T19:37:17.423Z,12.40
2019-05-23T19:41:37.564Z,12.30
2019-05-23T19:45:38.380Z,12.10
2019-05-23T19:50:05.023Z,11.90
2019-05-23T19:54:29.149Z,11.70
2019-05-23T19:58:36.328Z,11.60
2019-05-23T20:03:04.044Z,11.50
2019-05-23T20:07:28.291Z,11.50
2019-05-23T20:11:54.132Z,11.40
2019-05-23T20:15:57.295Z,11.20
2019-05-23T20:20:05.626Z,11.10
2019-05-23T20:24:12.107Z,11.00
2019-05-23T20:28:18.526Z,10.90
2019-05-23T20:32:43.729Z,10.90
2019-05-23T20:36:50.426Z,10.90
2019-05-23T20:40:57.066Z,10.90
2019-05-23T20:45:04.667Z,10.90
2019-05-23T20:49:29.814Z,10.80
2019-05-23T20:53:54.269Z,10.70
2019-05-23T20:58:18.839Z,10.60
2019-05-23T21:02:43.542Z,10.50
2019-05-23T21:07:08.956Z,10.40
2019-05-23T21:11:33.871Z,10.30
2019-05-23T21:15:58.240Z,10.20
2019-05-23T21:20:23.174Z,10.10
2019-05-23T21:24:47.370Z,10.10
2019-05-23T21:29:12.455Z,10.00
2019-05-23T21:33:37.854Z,10.00
2019-05-23T21:38:02.664Z,10.00
2019-05-23T21:42:10.822Z,10.00
2019-05-23T21:46:36.026Z,10.00
2019-05-23T21:51:01.355Z,10.10
2019-05-23T21:55:41.668Z,10.10
2019-05-23T22:00:08.126Z,10.00
2019-05-23T22:04:35.546Z,10.00
2019-05-23T22:09:00.962Z,9.90
2019-05-23T22:13:27.406Z,9.80
2019-05-23T22:17:51.835Z,9.70
2019-05-23T22:22:16.165Z,9.70
2019-05-23T22:26:40.554Z,9.70
2019-05-23T22:31:05.814Z,9.80
2019-05-23T22:35:31.266Z,9.80
2019-05-23T22:39:56.353Z,9.70
2019-05-23T22:44:20.826Z,9.60
2019-05-23T22:48:45.980Z,9.60
2019-05-23T22:53:10.378Z,9.50
2019-05-23T22:57:34.766Z,9.40
2019-05-23T23:01:59.817Z,9.40
2019-05-23T23:06:24.066Z,9.30
2019-05-23T23:10:49.396Z,9.20
2019-05-23T23:15:14.265Z,9.10
2019-05-23T23:19:38.798Z,9.00
2019-05-23T23:24:03.723Z,8.90
2019-05-23T23:28:28.306Z,8.80
2019-05-23T23:32:52.519Z,8.70
2019-05-23T23:37:16.758Z,8.60
2019-05-23T23:41:41.206Z,8.50
2019-05-23T23:46:24.522Z,8.40
2019-05-23T23:51:06.818Z,8.40
2019-05-23T23:55:49.974Z,8.40
